createdAt,value
2023-03-26T00:01:38.373Z,95169.91
2023-03-26T00:04:05.881Z,95154.56
2023-03-26T00:06:36.714Z,95135.34
2023-03-26T00:09:04.048Z,95123.00
2023-03-26T00:11:30.768Z,95100.53
2023-03-26T00:13:57.562Z,95083.25
2023-03-26T00:16:28.289Z,95088.44
2023-03-26T00:18:55.019Z,95112.56
2023-03-26T00:21:27.852Z,95103.94
2023-03-26T00:23:55.823Z,95100.53
2023-03-26T00:26:22.560Z,95093.66
2023-03-26T00:28:50.776Z,95123.00
2023-03-26T00:31:17.324Z,95145.47
2023-03-26T00:33:43.683Z,95157.50
2023-03-26T00:36:14.685Z,95168.59
2023-03-26T00:38:41.501Z,95164.34
2023-03-26T00:41:18.008Z,95193.69
2023-03-26T00:43:46.316Z,95269.75
2023-03-26T00:46:12.843Z,95291.28
2023-03-26T00:48:45.427Z,95323.34
2023-03-26T00:51:15.251Z,95339.66
2023-03-26T00:53:42.495Z,95351.41
2023-03-26T00:56:09.071Z,95330.88
2023-03-26T00:58:35.727Z,95284.59
2023-03-26T01:01:03.804Z,95265.72
2023-03-26T01:03:33.741Z,95262.13
2023-03-26T01:06:08.183Z,95214.22
2023-03-26T01:08:42.084Z,95199.56
2023-03-26T01:11:14.217Z,95159.00
2023-03-26T01:13:48.725Z,95106.41
2023-03-26T01:16:20.314Z,95074.47
2023-03-26T01:18:48.685Z,94998.88
2023-03-26T01:21:22.446Z,94948.75
2023-03-26T01:23:59.850Z,94901.03
2023-03-26T01:26:57.263Z,94846.47
2023-03-26T01:29:33.798Z,94779.72
2023-03-26T01:32:09.539Z,94692.81
2023-03-26T01:34:43.051Z,94598.72
2023-03-26T01:37:38.672Z,94513.09
2023-03-26T01:40:23.810Z,94395.25
2023-03-26T01:43:13.300Z,94342.91
2023-03-26T01:45:40.284Z,94297.72
2023-03-26T01:48:06.764Z,94267.84
2023-03-26T01:50:33.515Z,94264.78
2023-03-26T01:52:59.880Z,94287.41
2023-03-26T01:55:29.988Z,94360.91
2023-03-26T01:58:08.786Z,94405.81
2023-03-26T02:00:42.609Z,94486.53
2023-03-26T02:03:26.295Z,94598.50
2023-03-26T02:05:58.008Z,94707.03
2023-03-26T02:08:35.861Z,94789.59
2023-03-26T02:11:05.237Z,94834.00
2023-03-26T02:13:31.606Z,94882.03
2023-03-26T02:16:02.000Z,94946.44
2023-03-26T02:18:39.117Z,94989.75
2023-03-26T02:21:09.846Z,95054.19
2023-03-26T02:23:38.413Z,95087.06
2023-03-26T02:26:11.153Z,95119.44
2023-03-26T02:28:37.939Z,95170.56
2023-03-26T02:31:04.911Z,95233.69
2023-03-26T02:33:31.575Z,95288.53
2023-03-26T02:36:04.537Z,95325.28
2023-03-26T02:38:35.289Z,95368.59
2023-03-26T02:41:02.418Z,95451.94
2023-03-26T02:43:28.937Z,95512.75
2023-03-26T02:45:58.510Z,95590.09
2023-03-26T02:48:25.243Z,95613.66
2023-03-26T02:50:54.208Z,95645.19
2023-03-26T02:53:29.816Z,95649.88
2023-03-26T02:55:57.300Z,95629.03
2023-03-26T02:58:25.267Z,95596.28
2023-03-26T03:00:54.936Z,95592.44
2023-03-26T03:03:24.308Z,95573.94
2023-03-26T03:05:52.229Z,95530.63
2023-03-26T03:08:19.646Z,95498.56
2023-03-26T03:11:11.976Z,95468.44
2023-03-26T03:13:38.525Z,95455.56
2023-03-26T03:16:05.572Z,95475.88
2023-03-26T03:18:31.914Z,95503.16
2023-03-26T03:20:58.489Z,95521.66
2023-03-26T03:23:25.208Z,95556.47
2023-03-26T03:25:52.717Z,95579.91
2023-03-26T03:28:20.054Z,95626.06
2023-03-26T03:30:47.214Z,95667.72
2023-03-26T03:33:13.683Z,95695.69
2023-03-26T03:35:41.455Z,95694.31
2023-03-26T03:38:07.932Z,95728.28
2023-03-26T03:40:34.463Z,95744.75
2023-03-26T03:43:00.846Z,95764.88
2023-03-26T03:45:27.237Z,95800.91
2023-03-26T03:47:54.215Z,95790.78
2023-03-26T03:50:21.030Z,95799.53
2023-03-26T03:52:47.381Z,95835.56
2023-03-26T03:55:14.075Z,95857.06
2023-03-26T03:57:40.526Z,95866.09
2023-03-26T04:00:10.247Z,95873.09
2023-03-26T04:02:36.736Z,95876.53
2023-03-26T04:05:04.023Z,95875.81
2023-03-26T04:07:31.150Z,95865.56
2023-03-26T04:10:00.124Z,95880.34
2023-03-26T04:12:29.877Z,95897.59
2023-03-26T04:14:56.549Z,95885.41
2023-03-26T04:17:23.051Z,95881.84
2023-03-26T04:19:50.569Z,95898.97
2023-03-26T04:22:18.329Z,95919.53
2023-03-26T04:24:45.124Z,95980.78
2023-03-26T04:27:13.359Z,96063.22
2023-03-26T04:29:44.103Z,96122.84
2023-03-26T04:32:12.624Z,96176.53
2023-03-26T04:34:38.962Z,96198.19
2023-03-26T04:37:05.517Z,96187.78
2023-03-26T04:39:34.052Z,96141.97
2023-03-26T04:42:00.756Z,96032.94
2023-03-26T04:44:30.205Z,95940.59
2023-03-26T04:46:56.780Z,95950.91
2023-03-26T04:49:23.181Z,95986.09
2023-03-26T04:51:49.728Z,95997.47
2023-03-26T04:54:16.553Z,95951.31
2023-03-26T04:56:59.769Z,95878.56
2023-03-26T04:59:34.508Z,95800.78
2023-03-26T05:02:05.020Z,95755.59
2023-03-26T05:04:31.541Z,95740.94
2023-03-26T05:06:59.297Z,95724.38
2023-03-26T05:09:26.256Z,95711.34
2023-03-26T05:11:52.657Z,95749.69
2023-03-26T05:14:19.158Z,95777.38
2023-03-26T05:16:46.426Z,95802.44
2023-03-26T05:19:13.027Z,95834.31
2023-03-26T05:21:39.361Z,95851.03
2023-03-26T05:24:06.352Z,95871.06
2023-03-26T05:26:33.620Z,95897.34
2023-03-26T05:29:00.241Z,95944.19
2023-03-26T05:31:32.686Z,96025.53
2023-03-26T05:34:00.620Z,96041.13
2023-03-26T05:36:28.346Z,96027.69
2023-03-26T05:38:56.472Z,96010.31
2023-03-26T05:41:22.817Z,95988.66
2023-03-26T05:43:49.196Z,95979.22
2023-03-26T05:46:15.698Z,95982.50
2023-03-26T05:48:42.187Z,96022.50
2023-03-26T05:51:08.712Z,96064.13
2023-03-26T05:53:35.192Z,96090.03
2023-03-26T05:56:01.980Z,96132.50
2023-03-26T05:58:29.327Z,96195.28
2023-03-26T06:01:09.493Z,96253.78
2023-03-26T06:03:39.988Z,96289.59
2023-03-26T06:06:07.721Z,96341.84
2023-03-26T06:08:34.257Z,96373.44
2023-03-26T06:11:01.837Z,96364.41
2023-03-26T06:13:28.332Z,96333.63
2023-03-26T06:15:54.733Z,96351.59
2023-03-26T06:18:21.246Z,96349.44
2023-03-26T06:20:47.620Z,96317.09
2023-03-26T06:23:13.976Z,96303.97
2023-03-26T06:25:41.287Z,96328.94
2023-03-26T06:28:07.622Z,96358.88
2023-03-26T06:30:34.179Z,96314.19
2023-03-26T06:33:00.603Z,96309.81
2023-03-26T06:35:27.217Z,96321.63
2023-03-26T06:37:53.551Z,96314.50
2023-03-26T06:40:20.101Z,96263.66
2023-03-26T06:43:07.064Z,96251.44
2023-03-26T06:45:33.282Z,96227.72
2023-03-26T06:48:00.141Z,96209.47
2023-03-26T06:50:27.349Z,96211.13
2023-03-26T06:52:54.793Z,96200.31
2023-03-26T06:55:21.198Z,96209.66
2023-03-26T06:57:54.517Z,96206.75
2023-03-26T07:00:21.017Z,96257.00
2023-03-26T07:02:47.480Z,96275.78
2023-03-26T07:05:14.176Z,96304.78
2023-03-26T07:07:46.422Z,96384.63
2023-03-26T07:10:13.435Z,96515.09
2023-03-26T07:12:39.822Z,96545.78
2023-03-26T07:15:06.803Z,96528.47
2023-03-26T07:17:33.191Z,96560.47
2023-03-26T07:20:01.339Z,96564.59
2023-03-26T07:22:27.967Z,96574.91
2023-03-26T07:24:54.802Z,96590.56
2023-03-26T07:27:37.678Z,96625.16
2023-03-26T07:30:35.431Z,96668.28
2023-03-26T07:33:05.708Z,96631.28
2023-03-26T07:35:53.189Z,96634.59
2023-03-26T07:38:44.391Z,96612.31
2023-03-26T07:41:41.370Z,96709.09
2023-03-26T07:44:34.630Z,96762.78
2023-03-26T07:47:04.915Z,96760.53
2023-03-26T07:49:31.573Z,96708.09
2023-03-26T07:51:58.621Z,96704.53
2023-03-26T07:54:25.574Z,96638.09
2023-03-26T07:56:58.842Z,96617.81
2023-03-26T07:59:37.097Z,96725.47
2023-03-26T08:02:25.360Z,96778.06
2023-03-26T08:05:21.293Z,96827.63
2023-03-26T08:07:53.704Z,96845.41
2023-03-26T08:10:27.388Z,96869.84
2023-03-26T08:13:06.441Z,96869.38
2023-03-26T08:15:45.121Z,96880.03
2023-03-26T08:18:35.629Z,96888.34
2023-03-26T08:21:27.232Z,96842.03
2023-03-26T08:24:00.929Z,96860.66
2023-03-26T08:26:44.174Z,97006.50
2023-03-26T08:29:21.347Z,97147.66
2023-03-26T08:31:48.276Z,97102.72
2023-03-26T08:34:14.720Z,97100.97
2023-03-26T08:36:41.151Z,97102.19
2023-03-26T08:39:08.434Z,97105.84
2023-03-26T08:41:43.785Z,97162.00
2023-03-26T08:44:22.461Z,97112.88
2023-03-26T08:47:10.204Z,97146.34
2023-03-26T08:49:58.509Z,97107.44
2023-03-26T08:52:43.593Z,97118.13
2023-03-26T08:55:20.763Z,97114.09
2023-03-26T08:58:11.934Z,97215.28
2023-03-26T09:01:03.058Z,97155.19
2023-03-26T09:03:39.243Z,97165.19
2023-03-26T09:06:31.104Z,97211.25
2023-03-26T09:09:19.266Z,97198.28
2023-03-26T09:12:07.994Z,97168.00
2023-03-26T09:14:45.370Z,97178.69
2023-03-26T09:17:27.695Z,97168.84
2023-03-26T09:20:21.894Z,97197.94
2023-03-26T09:22:59.586Z,97130.00
2023-03-26T09:25:47.607Z,97074.19
2023-03-26T09:28:32.252Z,97000.44
2023-03-26T09:31:36.074Z,97002.19
2023-03-26T09:34:20.591Z,96988.44
2023-03-26T09:37:26.644Z,96888.41
2023-03-26T09:40:12.008Z,96965.16
2023-03-26T09:42:56.258Z,97063.03
2023-03-26T09:45:38.706Z,97183.69
2023-03-26T09:48:20.025Z,97175.88
2023-03-26T09:51:07.733Z,97108.84
2023-03-26T09:54:06.653Z,97150.19
2023-03-26T09:56:58.020Z,97124.75
2023-03-26T09:59:46.948Z,97362.97
2023-03-26T10:02:22.567Z,97402.84
2023-03-26T10:05:41.351Z,97325.69
2023-03-26T10:08:24.643Z,97485.34
2023-03-26T10:10:58.278Z,97559.84
2023-03-26T10:13:52.420Z,97568.56
2023-03-26T10:16:27.978Z,97449.25
2023-03-26T10:19:19.093Z,97471.00
2023-03-26T10:21:52.210Z,97472.34
2023-03-26T10:24:30.750Z,97448.44
2023-03-26T10:27:13.740Z,97436.72
2023-03-26T10:30:11.240Z,97493.06
2023-03-26T10:33:04.964Z,97394.97
2023-03-26T10:36:02.278Z,97378.91
2023-03-26T10:38:52.079Z,97318.31
2023-03-26T10:41:21.572Z,97244.66
2023-03-26T10:44:07.395Z,97230.88
2023-03-26T10:46:41.050Z,97278.34
2023-03-26T10:49:13.554Z,97238.75
2023-03-26T10:51:53.586Z,97231.97
2023-03-26T10:54:44.445Z,97259.09
2023-03-26T10:57:43.899Z,97168.91
2023-03-26T11:00:17.583Z,97156.06
2023-03-26T11:03:11.192Z,97165.34
2023-03-26T11:05:49.276Z,97149.00
2023-03-26T11:08:18.615Z,97187.63
2023-03-26T11:11:11.074Z,97275.47
2023-03-26T11:13:58.823Z,97290.72
2023-03-26T11:16:51.382Z,97246.91
2023-03-26T11:19:53.189Z,97210.47
2023-03-26T11:22:25.117Z,97258.06
2023-03-26T11:25:06.954Z,97255.31
2023-03-26T11:27:39.999Z,97315.91
2023-03-26T11:30:16.638Z,97314.03
2023-03-26T11:32:45.271Z,97308.28
2023-03-26T11:35:39.878Z,97258.66
2023-03-26T11:38:21.656Z,97356.19
2023-03-26T11:40:50.657Z,97359.00
2023-03-26T11:43:19.085Z,97337.53
2023-03-26T11:45:46.120Z,97353.34
2023-03-26T11:48:17.115Z,97465.56
2023-03-26T11:50:52.461Z,97486.47
2023-03-26T11:53:20.616Z,97565.38
2023-03-26T11:56:00.866Z,97527.47
2023-03-26T11:58:30.987Z,97563.03
2023-03-26T12:00:57.494Z,97569.72
2023-03-26T12:03:24.181Z,97591.44
2023-03-26T12:05:53.967Z,97566.00
2023-03-26T12:08:39.097Z,97602.88
2023-03-26T12:11:11.751Z,97604.13
2023-03-26T12:13:43.460Z,97628.72
2023-03-26T12:16:14.423Z,97615.78
2023-03-26T12:18:43.154Z,97607.44
2023-03-26T12:21:12.583Z,97599.59
2023-03-26T12:23:43.695Z,97611.03
2023-03-26T12:26:14.297Z,97578.72
2023-03-26T12:28:44.632Z,97598.16
2023-03-26T12:31:11.813Z,97573.63
2023-03-26T12:33:38.940Z,97564.78
2023-03-26T12:36:24.618Z,97565.13
2023-03-26T12:39:16.811Z,97515.38
2023-03-26T12:44:42.879Z,97549.16
2023-03-26T12:44:59.279Z,97547.84
2023-03-26T12:47:57.978Z,97561.66
2023-03-26T12:50:17.336Z,97546.41
2023-03-26T12:52:56.412Z,97553.78
2023-03-26T12:55:36.719Z,97575.25
2023-03-26T12:58:13.729Z,97604.94
2023-03-26T13:01:07.727Z,97595.78
2023-03-26T13:03:41.988Z,97649.31
2023-03-26T13:06:27.583Z,97650.13
2023-03-26T13:09:07.121Z,97636.56
2023-03-26T13:11:36.444Z,97663.25
2023-03-26T13:14:32.785Z,97656.81
2023-03-26T13:17:15.040Z,97622.44
2023-03-26T13:20:15.746Z,97652.59
2023-03-26T13:22:57.500Z,97659.84
2023-03-26T13:25:27.019Z,97673.44
2023-03-26T13:28:23.800Z,97668.94
2023-03-26T13:31:13.092Z,97677.22
2023-03-26T13:34:21.151Z,97663.03
2023-03-26T13:37:14.607Z,97655.53
2023-03-26T13:39:51.006Z,97671.28
2023-03-26T13:42:21.759Z,97669.94
2023-03-26T13:44:52.671Z,97659.78
2023-03-26T13:47:34.712Z,97653.72
2023-03-26T13:50:10.188Z,97654.69
2023-03-26T13:52:43.964Z,97636.78
2023-03-26T13:55:22.776Z,97601.69
2023-03-26T13:58:00.144Z,97566.34
2023-03-26T14:00:32.446Z,97610.97
2023-03-26T14:03:03.604Z,97595.97
2023-03-26T14:05:49.768Z,97602.91
2023-03-26T14:08:25.118Z,97610.31
2023-03-26T14:10:54.426Z,97616.66
2023-03-26T14:13:30.406Z,97620.84
2023-03-26T14:16:17.058Z,97627.97
2023-03-26T14:18:47.603Z,97585.97
2023-03-26T14:21:50.571Z,97611.88
2023-03-26T14:24:20.311Z,97592.19
2023-03-26T14:27:05.442Z,97587.81
2023-03-26T14:29:57.010Z,97583.63
2023-03-26T14:32:46.619Z,97527.59
2023-03-26T14:35:33.620Z,97548.94
2023-03-26T14:38:12.333Z,97534.28
2023-03-26T14:41:08.170Z,97550.97
2023-03-26T14:43:41.809Z,97515.91
2023-03-26T14:46:31.294Z,97531.66
2023-03-26T14:49:03.819Z,97554.78
2023-03-26T14:51:49.062Z,97564.31
2023-03-26T14:54:23.404Z,97566.22
2023-03-26T14:56:58.223Z,97534.44
2023-03-26T14:59:55.880Z,97562.16
2023-03-26T15:02:22.718Z,97564.53
2023-03-26T15:05:11.285Z,97560.63
2023-03-26T15:08:19.856Z,97521.44
2023-03-26T15:11:24.292Z,97542.03
2023-03-26T15:14:20.920Z,97542.25
2023-03-26T15:17:12.534Z,97521.28
2023-03-26T15:19:48.329Z,97539.75
2023-03-26T15:22:39.520Z,97527.59
2023-03-26T15:25:33.209Z,97543.31
2023-03-26T15:28:24.572Z,97569.97
2023-03-26T15:31:31.706Z,97574.00
2023-03-26T15:34:07.383Z,97567.09
2023-03-26T15:36:37.172Z,97547.59
2023-03-26T15:39:37.973Z,97562.34
2023-03-26T15:42:10.985Z,97566.88
2023-03-26T15:45:08.804Z,97586.41
2023-03-26T15:47:37.989Z,97566.03
2023-03-26T15:50:16.877Z,97565.28
2023-03-26T15:52:52.050Z,97573.72
2023-03-26T15:55:27.674Z,97579.63
2023-03-26T15:58:04.178Z,97587.69
2023-03-26T16:00:41.950Z,97583.72
2023-03-26T16:03:15.462Z,97586.47
2023-03-26T16:05:54.020Z,97597.13
2023-03-26T16:08:26.889Z,97601.50
2023-03-26T16:11:00.301Z,97598.41
2023-03-26T16:13:43.557Z,97599.66
2023-03-26T16:16:11.571Z,97588.38
2023-03-26T16:18:54.209Z,97595.84
2023-03-26T16:21:38.372Z,97602.03
2023-03-26T16:24:08.166Z,97599.72
2023-03-26T16:26:43.807Z,97604.13
2023-03-26T16:29:18.297Z,97619.53
2023-03-26T16:32:09.837Z,97610.94
2023-03-26T16:34:55.613Z,97618.69
2023-03-26T16:37:40.770Z,97613.81
2023-03-26T16:40:25.348Z,97627.81
2023-03-26T16:42:57.682Z,97634.22
2023-03-26T16:45:37.088Z,97637.03
2023-03-26T16:48:41.258Z,97651.25
2023-03-26T16:51:35.292Z,97651.81
2023-03-26T16:54:36.713Z,97654.00
2023-03-26T16:57:28.494Z,97647.31
2023-03-26T17:00:15.994Z,97629.13
2023-03-26T17:03:12.849Z,97609.88
2023-03-26T17:05:56.412Z,97607.81
2023-03-26T17:08:47.785Z,97593.16
2023-03-26T17:11:41.961Z,97587.34
2023-03-26T17:14:11.285Z,97610.78
2023-03-26T17:16:41.050Z,97628.31
2023-03-26T17:19:29.571Z,97640.88
2023-03-26T17:22:17.005Z,97643.56
2023-03-26T17:25:11.945Z,97635.53
2023-03-26T17:27:49.821Z,97669.06
2023-03-26T17:30:48.404Z,97675.66
2023-03-26T17:33:34.643Z,97666.13
2023-03-26T17:36:16.071Z,97673.25
2023-03-26T17:38:48.597Z,97691.75
2023-03-26T17:41:35.904Z,97713.16
2023-03-26T17:44:05.757Z,97752.59
2023-03-26T17:46:33.086Z,97758.88
2023-03-26T17:49:12.749Z,97758.22
2023-03-26T17:51:52.599Z,97775.97
2023-03-26T17:54:41.302Z,97769.47
2023-03-26T17:57:22.806Z,97768.41
2023-03-26T17:59:50.112Z,97758.09
2023-03-26T18:02:21.682Z,97747.75
2023-03-26T18:04:51.101Z,97755.88
2023-03-26T18:07:31.132Z,97750.88
2023-03-26T18:10:16.860Z,97748.09
2023-03-26T18:13:32.812Z,97738.50
2023-03-26T18:16:09.444Z,97756.00
2023-03-26T18:18:53.880Z,97737.19
2023-03-26T18:21:35.942Z,97730.41
2023-03-26T18:24:03.222Z,97728.00
2023-03-26T18:26:37.583Z,97731.75
2023-03-26T18:29:27.427Z,97722.22
2023-03-26T18:32:00.276Z,97728.56
2023-03-26T18:34:31.860Z,97734.59
2023-03-26T18:37:08.363Z,97719.88
2023-03-26T18:39:34.941Z,97703.50
2023-03-26T18:42:01.322Z,97694.06
2023-03-26T18:44:27.913Z,97703.06
2023-03-26T18:46:55.263Z,97656.47
2023-03-26T18:49:21.697Z,97646.03
2023-03-26T18:51:56.894Z,97656.47
2023-03-26T18:54:24.066Z,97652.09
2023-03-26T18:56:52.142Z,97665.06
2023-03-26T18:59:35.044Z,97673.59
2023-03-26T19:02:07.282Z,97657.97
2023-03-26T19:04:34.876Z,97680.72
2023-03-26T19:07:01.547Z,97680.72
2023-03-26T19:09:32.049Z,97700.28
2023-03-26T19:12:17.445Z,97754.31
2023-03-26T19:15:12.204Z,97786.53
2023-03-26T19:17:45.879Z,97814.38
2023-03-26T19:20:21.649Z,97829.84
2023-03-26T19:22:48.105Z,97869.25
2023-03-26T19:25:26.621Z,97876.34
2023-03-26T19:27:53.004Z,97886.56
2023-03-26T19:30:33.836Z,97899.03
2023-03-26T19:33:12.667Z,97902.41
2023-03-26T19:35:40.626Z,97899.03
2023-03-26T19:38:23.890Z,97937.03
2023-03-26T19:40:52.359Z,97955.44
2023-03-26T19:43:18.749Z,97954.63
2023-03-26T19:46:00.399Z,97962.69
2023-03-26T19:48:46.046Z,97978.84
2023-03-26T19:51:19.944Z,97994.84
2023-03-26T19:53:53.698Z,98000.06
2023-03-26T19:56:20.709Z,97997.06
2023-03-26T19:58:47.230Z,98005.97
2023-03-26T20:01:19.881Z,98001.84
2023-03-26T20:03:48.213Z,97990.69
2023-03-26T20:06:16.711Z,98000.53
2023-03-26T20:08:43.718Z,97993.06
2023-03-26T20:11:21.461Z,97996.91
2023-03-26T20:13:48.490Z,98006.16
2023-03-26T20:16:20.202Z,97997.56
2023-03-26T20:18:47.611Z,97999.94
2023-03-26T20:21:14.060Z,97986.13
2023-03-26T20:23:40.816Z,97984.66
2023-03-26T20:26:11.152Z,97984.31
2023-03-26T20:28:47.284Z,97984.44
2023-03-26T20:31:17.363Z,97961.09
2023-03-26T20:33:43.764Z,97959.69
2023-03-26T20:36:12.892Z,97948.59
2023-03-26T20:38:40.940Z,97939.44
2023-03-26T20:41:10.193Z,97941.59
2023-03-26T20:43:36.609Z,97932.28
2023-03-26T20:46:03.946Z,97915.00
2023-03-26T20:48:30.418Z,97920.53
2023-03-26T20:50:57.062Z,97919.16
2023-03-26T20:53:23.748Z,97925.44
2023-03-26T20:55:51.634Z,97931.13
2023-03-26T20:58:31.645Z,97931.13
2023-03-26T21:01:00.308Z,97936.53
2023-03-26T21:03:26.737Z,97936.81
2023-03-26T21:05:53.237Z,97930.94
2023-03-26T21:08:20.114Z,97940.88
2023-03-26T21:10:46.806Z,97947.00
2023-03-26T21:13:19.444Z,97940.97
2023-03-26T21:15:46.663Z,97947.88
2023-03-26T21:18:13.480Z,97945.41
2023-03-26T21:20:40.106Z,97950.00
2023-03-26T21:23:06.472Z,97952.59
2023-03-26T21:25:42.122Z,97952.69
2023-03-26T21:28:42.600Z,97946.94
2023-03-26T21:31:23.983Z,97949.91
2023-03-26T21:33:50.967Z,97942.97
2023-03-26T21:36:18.530Z,97947.38
2023-03-26T21:38:45.479Z,97947.38
2023-03-26T21:41:23.985Z,97941.44
2023-03-26T21:43:51.049Z,97946.72
2023-03-26T21:46:17.806Z,97947.56
2023-03-26T21:48:44.527Z,97939.13
2023-03-26T21:51:14.567Z,97935.47
2023-03-26T21:53:42.333Z,97935.25
2023-03-26T21:56:40.157Z,97923.84
2023-03-26T21:59:10.078Z,97928.66
2023-03-26T22:02:01.705Z,97940.28
2023-03-26T22:04:58.520Z,97933.25
2023-03-26T22:07:47.362Z,97939.44
2023-03-26T22:10:13.805Z,97935.84
2023-03-26T22:12:40.144Z,97942.97
2023-03-26T22:15:07.458Z,97950.97
2023-03-26T22:17:33.843Z,97950.44
2023-03-26T22:20:01.399Z,97941.56
2023-03-26T22:22:28.769Z,97937.09
2023-03-26T22:24:55.136Z,97944.03
2023-03-26T22:27:21.469Z,97946.69
2023-03-26T22:29:48.373Z,97948.47
2023-03-26T22:32:14.725Z,97955.47
2023-03-26T22:34:42.066Z,97955.47
2023-03-26T22:37:08.416Z,97955.63
2023-03-26T22:39:34.847Z,97952.28
2023-03-26T22:42:03.830Z,97946.16
2023-03-26T22:44:31.198Z,97942.88
2023-03-26T22:46:57.594Z,97957.47
2023-03-26T22:49:27.307Z,97963.28
2023-03-26T22:51:53.680Z,97966.72
2023-03-26T22:54:20.415Z,97965.25
2023-03-26T22:56:46.852Z,97973.06
2023-03-26T22:59:13.310Z,97976.41
2023-03-26T23:01:40.141Z,97990.47
2023-03-26T23:04:07.010Z,97993.09
2023-03-26T23:06:33.806Z,98011.41
2023-03-26T23:09:01.009Z,98021.94
2023-03-26T23:11:29.488Z,98019.56
2023-03-26T23:13:56.629Z,98017.97
2023-03-26T23:16:23.029Z,98034.72
2023-03-26T23:18:49.537Z,98042.03
2023-03-26T23:21:20.448Z,98052.56
2023-03-26T23:23:47.863Z,98067.97
2023-03-26T23:26:15.016Z,98067.84
2023-03-26T23:28:41.564Z,98092.28
2023-03-26T23:31:09.130Z,98103.56
2023-03-26T23:33:37.000Z,98121.69
2023-03-26T23:36:08.981Z,98126.81
2023-03-26T23:38:43.764Z,98142.38
2023-03-26T23:41:15.476Z,98170.16
2023-03-26T23:43:53.596Z,98172.75
2023-03-26T23:46:23.888Z,98178.28
2023-03-26T23:48:55.087Z,98208.72
2023-03-26T23:51:21.682Z,98226.91
2023-03-26T23:53:49.060Z,98238.22
2023-03-26T23:56:16.242Z,98236.38
2023-03-26T23:58:42.881Z,98284.41
